createdAt,value
2017-09-08T00:00:12.459Z,1003.75
2017-09-08T00:01:12.355Z,1003.78
2017-09-08T00:02:12.468Z,1003.76
2017-09-08T00:03:12.380Z,1003.71
2017-09-08T00:04:12.422Z,1003.69
2017-09-08T00:05:12.400Z,1003.68
2017-09-08T00:06:12.420Z,1003.65
2017-09-08T00:07:12.426Z,1003.65
2017-09-08T00:08:12.433Z,1003.63
2017-09-08T00:09:12.444Z,1003.60
2017-09-08T00:10:12.455Z,1003.60
2017-09-08T00:11:12.473Z,1003.53
2017-09-08T00:12:12.482Z,1003.56
2017-09-08T00:13:12.490Z,1003.47
2017-09-08T00:14:12.505Z,1003.50
2017-09-08T00:15:12.673Z,1003.47
2017-09-08T00:16:12.529Z,1003.48
2017-09-08T00:17:12.677Z,1003.45
2017-09-08T00:18:12.559Z,1003.49
2017-09-08T00:19:12.695Z,1003.42
2017-09-08T00:20:12.598Z,1003.45
2017-09-08T00:21:12.702Z,1003.42
2017-09-08T00:22:12.596Z,1003.38
2017-09-08T00:23:12.716Z,1003.44
2017-09-08T00:24:12.617Z,1003.39
2017-09-08T00:25:12.728Z,1003.38
2017-09-08T00:26:12.657Z,1003.36
2017-09-08T00:27:12.741Z,1003.34
2017-09-08T00:28:12.668Z,1003.35
2017-09-08T00:29:12.869Z,1003.35
2017-09-08T00:30:12.701Z,1003.29
2017-09-08T00:31:12.876Z,1003.31
2017-09-08T00:32:12.734Z,1003.27
2017-09-08T00:33:12.862Z,1003.23
2017-09-08T00:34:12.739Z,1003.21
2017-09-08T00:35:12.917Z,1003.26
2017-09-08T00:36:12.771Z,1003.17
2017-09-08T00:37:12.904Z,1003.21
2017-09-08T00:38:12.777Z,1003.20
2017-09-08T00:39:12.917Z,1003.22
2017-09-08T00:40:12.815Z,1003.22
2017-09-08T00:41:12.930Z,1003.27
2017-09-08T00:42:12.830Z,1003.27
2017-09-08T00:43:12.946Z,1003.25
2017-09-08T00:44:12.845Z,1003.31
2017-09-08T00:45:12.962Z,1003.36
2017-09-08T00:46:12.867Z,1003.38
2017-09-08T00:47:12.975Z,1003.40
2017-09-08T00:48:12.890Z,1003.37
2017-09-08T00:49:13.085Z,1003.33
2017-09-08T00:50:12.922Z,1003.36
2017-09-08T00:51:13.101Z,1003.37
2017-09-08T00:52:12.932Z,1003.40
2017-09-08T00:53:13.064Z,1003.34
2017-09-08T00:54:12.958Z,1003.44
2017-09-08T00:55:22.391Z,1003.41
2017-09-08T00:57:06.533Z,1003.46
2017-09-08T00:58:06.622Z,1003.43
2017-09-08T00:59:06.765Z,1003.38
2017-09-08T01:00:06.645Z,1003.44
2017-09-08T01:01:06.351Z,1003.41
2017-09-08T01:02:06.397Z,1003.38
2017-09-08T01:03:07.499Z,1003.37
2017-09-08T01:04:06.384Z,1003.37
2017-09-08T01:05:06.467Z,1003.36
2017-09-08T01:06:06.415Z,1003.32
2017-09-08T01:07:12.029Z,1003.32
2017-09-08T01:08:06.443Z,1003.27
2017-09-08T01:09:27.456Z,1003.26
2017-09-08T01:10:06.506Z,1003.24
2017-09-08T01:11:06.608Z,1003.29
2017-09-08T01:12:06.486Z,1003.17
2017-09-08T01:13:06.609Z,1003.19
2017-09-08T01:14:06.508Z,1003.20
2017-09-08T01:15:06.731Z,1003.15
2017-09-08T01:16:06.530Z,1003.17
2017-09-08T01:17:06.752Z,1003.14
2017-09-08T01:18:06.552Z,1003.06
2017-09-08T01:19:06.763Z,1003.05
2017-09-08T01:20:06.570Z,1003.00
2017-09-08T01:21:06.764Z,1002.94
2017-09-08T01:22:06.586Z,1003.01
2017-09-08T01:23:06.787Z,1002.98
2017-09-08T01:24:06.684Z,1002.94
2017-09-08T01:25:06.757Z,1002.93
2017-09-08T01:26:06.636Z,1002.89
2017-09-08T01:27:06.703Z,1002.88
2017-09-08T01:28:06.673Z,1002.89
2017-09-08T01:29:06.719Z,1002.88
2017-09-08T01:30:06.690Z,1002.89
2017-09-08T01:31:06.794Z,1002.82
2017-09-08T01:32:06.719Z,1002.79
2017-09-08T01:33:06.810Z,1002.76
2017-09-08T01:34:06.723Z,1002.74
2017-09-08T01:35:06.831Z,1002.67
2017-09-08T01:36:06.749Z,1002.66
2017-09-08T01:37:06.935Z,1002.63
2017-09-08T01:38:06.770Z,1002.60
2017-09-08T01:39:07.868Z,1002.56
2017-09-08T01:40:06.786Z,1002.57
2017-09-08T01:41:07.885Z,1002.51
2017-09-08T01:42:06.814Z,1002.49
2017-09-08T01:43:08.924Z,1002.48
2017-09-08T01:44:06.834Z,1002.46
2017-09-08T01:45:08.869Z,1002.46
2017-09-08T01:46:06.867Z,1002.37
2017-09-08T01:47:13.561Z,1002.34
2017-09-08T01:48:06.886Z,1002.35
2017-09-08T01:49:07.029Z,1002.31
2017-09-08T01:50:06.903Z,1002.30
2017-09-08T01:51:06.933Z,1002.29
2017-09-08T01:52:06.931Z,1002.29
2017-09-08T01:53:07.044Z,1002.24
2017-09-08T01:54:06.949Z,1002.25
2017-09-08T01:55:09.102Z,1002.22
2017-09-08T01:56:06.980Z,1002.18
2017-09-08T01:57:08.093Z,1002.18
2017-09-08T01:58:07.002Z,1002.17
2017-09-08T01:59:07.186Z,1002.16
2017-09-08T02:00:07.032Z,1002.17
2017-09-08T02:01:08.122Z,1002.16
2017-09-08T02:02:07.036Z,1002.19
2017-09-08T02:03:07.227Z,1002.22
2017-09-08T02:04:07.059Z,1002.22
2017-09-08T02:05:07.222Z,1002.19
2017-09-08T02:06:07.121Z,1002.19
2017-09-08T02:07:09.284Z,1002.19
2017-09-08T02:08:07.112Z,1002.14
2017-09-08T02:09:07.253Z,1002.11
2017-09-08T02:10:07.124Z,1002.08
2017-09-08T02:11:09.318Z,1002.07
2017-09-08T02:12:07.175Z,1002.08
2017-09-08T02:13:08.302Z,1002.04
2017-09-08T02:14:07.170Z,1002.03
2017-09-08T02:15:09.344Z,1002.01
2017-09-08T02:16:07.190Z,1002.01
2017-09-08T02:17:12.138Z,1001.98
2017-09-08T02:18:07.215Z,1001.99
2017-09-08T02:19:08.350Z,1001.99
2017-09-08T02:20:07.246Z,1001.96
2017-09-08T02:21:20.141Z,1001.92
2017-09-08T02:22:07.262Z,1001.89
2017-09-08T02:23:09.311Z,1001.84
2017-09-08T02:24:07.294Z,1001.80
2017-09-08T02:25:07.366Z,1001.80
2017-09-08T02:26:07.310Z,1001.74
2017-09-08T02:27:07.484Z,1001.72
2017-09-08T02:28:07.324Z,1001.69
2017-09-08T02:29:13.054Z,1001.65
2017-09-08T02:30:07.344Z,1001.63
2017-09-08T02:31:08.529Z,1001.61
2017-09-08T02:32:07.403Z,1001.55
2017-09-08T02:33:07.539Z,1001.57
2017-09-08T02:34:07.405Z,1001.51
2017-09-08T02:35:12.138Z,1001.42
2017-09-08T02:36:07.416Z,1001.38
2017-09-08T02:37:09.602Z,1001.37
2017-09-08T02:38:07.446Z,1001.31
2017-09-08T02:39:18.115Z,1001.30
2017-09-08T02:40:07.460Z,1001.25
2017-09-08T02:41:28.673Z,1001.27
2017-09-08T02:42:07.482Z,1001.30
2017-09-08T02:43:23.575Z,1001.26
2017-09-08T02:44:07.504Z,1001.31
2017-09-08T02:45:20.608Z,1001.26
2017-09-08T02:46:07.527Z,1001.25
2017-09-08T02:47:09.663Z,1001.22
2017-09-08T02:48:07.548Z,1001.23
2017-09-08T02:49:09.683Z,1001.20
2017-09-08T02:50:07.567Z,1001.19
2017-09-08T02:59:50.248Z,1001.22
2017-09-08T03:00:49.674Z,1001.18
2017-09-08T03:01:48.492Z,1001.18
2017-09-08T03:02:49.687Z,1001.14
2017-09-08T03:03:48.511Z,1001.19
2017-09-08T03:04:48.674Z,1001.12
2017-09-08T03:05:48.535Z,1001.16
2017-09-08T03:06:48.695Z,1001.12
2017-09-08T03:07:48.573Z,1001.11
2017-09-08T03:08:48.628Z,1001.11
2017-09-08T03:09:48.591Z,1001.05
2017-09-08T03:10:49.664Z,1001.07
2017-09-08T03:11:48.624Z,1001.01
2017-09-08T03:12:49.676Z,1001.00
2017-09-08T03:13:48.637Z,1000.97
2017-09-08T03:14:49.699Z,1000.94
2017-09-08T03:15:48.651Z,1000.94
2017-09-08T03:16:48.690Z,1000.91
2017-09-08T03:17:48.670Z,1000.93
2017-09-08T03:18:49.724Z,1000.96
2017-09-08T03:19:48.688Z,1000.95
2017-09-08T03:20:48.922Z,1000.92
2017-09-08T03:21:48.715Z,1000.94
2017-09-08T03:22:48.839Z,1000.87
2017-09-08T03:23:48.736Z,1000.92
2017-09-08T03:24:49.869Z,1000.90
2017-09-08T03:25:48.758Z,1000.84
2017-09-08T03:26:49.871Z,1000.83
2017-09-08T03:27:48.775Z,1000.81
2017-09-08T03:28:48.894Z,1000.84
2017-09-08T03:29:48.800Z,1000.81
2017-09-08T03:30:48.891Z,1000.79
2017-09-08T03:31:48.821Z,1000.80
2017-09-08T03:32:48.900Z,1000.78
2017-09-08T03:33:48.880Z,1000.76
2017-09-08T03:34:49.925Z,1000.80
2017-09-08T03:35:48.865Z,1000.71
2017-09-08T03:36:48.920Z,1000.69
2017-09-08T03:37:48.900Z,1000.69
2017-09-08T03:38:48.913Z,1000.68
2017-09-08T03:39:48.907Z,1000.67
2017-09-08T03:40:50.998Z,1000.64
2017-09-08T03:41:48.932Z,1000.66
2017-09-08T03:42:49.053Z,1000.65
2017-09-08T03:43:48.951Z,1000.57
2017-09-08T03:44:49.976Z,1000.63
2017-09-08T03:45:48.971Z,1000.60
2017-09-08T03:46:50.131Z,1000.56
2017-09-08T03:47:49.012Z,1000.60
2017-09-08T03:48:49.106Z,1000.61
2017-09-08T03:49:49.024Z,1000.66
2017-09-08T03:50:49.121Z,1000.55
2017-09-08T03:51:49.035Z,1000.60
2017-09-08T03:52:49.135Z,1000.48
2017-09-08T03:53:49.057Z,1000.46
2017-09-08T03:54:49.143Z,1000.40
2017-09-08T03:55:49.089Z,1000.40
2017-09-08T03:56:49.150Z,1000.34
2017-09-08T03:57:49.107Z,1000.30
2017-09-08T03:58:49.165Z,1000.26
2017-09-08T03:59:49.128Z,1000.25
2017-09-08T04:00:49.174Z,1000.25
2017-09-08T04:01:49.172Z,1000.24
2017-09-08T04:02:49.196Z,1000.20
2017-09-08T04:03:49.176Z,1000.22
2017-09-08T04:04:49.312Z,1000.16
2017-09-08T04:05:49.188Z,1000.11
2017-09-08T04:06:49.320Z,1000.06
2017-09-08T04:07:49.214Z,1000.08
2017-09-08T04:08:49.336Z,1000.09
2017-09-08T04:09:49.239Z,1000.06
2017-09-08T04:10:49.351Z,1000.02
2017-09-08T04:11:49.266Z,1000.06
2017-09-08T04:12:49.462Z,1000.01
2017-09-08T04:13:49.287Z,999.98
2017-09-08T04:14:49.449Z,1000.01
2017-09-08T04:15:49.306Z,1000.01
2017-09-08T04:16:51.507Z,999.97
2017-09-08T04:17:49.333Z,999.91
2017-09-08T04:18:49.499Z,999.90
2017-09-08T04:19:49.350Z,999.91
2017-09-08T04:20:49.485Z,999.90
2017-09-08T04:21:49.365Z,999.89
2017-09-08T04:22:51.557Z,999.89
2017-09-08T04:23:49.389Z,999.88
2017-09-08T04:24:49.507Z,999.86
2017-09-08T04:25:49.411Z,999.88
2017-09-08T04:26:50.578Z,999.86
2017-09-08T04:27:49.430Z,999.84
2017-09-08T04:28:49.640Z,999.82
2017-09-08T04:29:49.454Z,999.83
2017-09-08T04:30:49.625Z,999.89
2017-09-08T04:31:49.495Z,999.80
2017-09-08T04:32:49.608Z,999.79
2017-09-08T04:33:49.541Z,999.80
2017-09-08T04:34:51.573Z,999.81
2017-09-08T04:35:49.527Z,999.79
2017-09-08T04:36:49.633Z,999.75
2017-09-08T04:37:49.544Z,999.70
2017-09-08T04:38:49.562Z,999.77
2017-09-08T04:39:49.564Z,999.75
2017-09-08T04:40:49.740Z,999.80
2017-09-08T04:41:49.601Z,999.72
2017-09-08T04:42:49.598Z,999.70
2017-09-08T04:43:54.267Z,999.72
2017-09-08T04:44:49.639Z,999.76
2017-09-08T04:45:49.666Z,999.76
2017-09-08T04:46:49.631Z,999.71
2017-09-08T04:47:51.741Z,999.71
2017-09-08T04:48:49.666Z,999.73
2017-09-08T04:49:49.704Z,999.72
2017-09-08T04:50:49.686Z,999.67
2017-09-08T04:51:49.813Z,999.66
2017-09-08T04:52:49.731Z,999.69
2017-09-08T04:53:51.770Z,999.65
2017-09-08T04:54:49.729Z,999.68
2017-09-08T04:55:50.860Z,999.60
2017-09-08T04:56:49.773Z,999.56
2017-09-08T04:57:51.863Z,999.55
2017-09-08T04:58:49.839Z,999.54
2017-09-08T04:59:49.889Z,999.56
2017-09-08T05:00:49.801Z,999.54
2017-09-08T05:01:49.898Z,999.48
2017-09-08T05:02:49.810Z,999.56
2017-09-08T05:03:50.933Z,999.51
2017-09-08T05:04:49.837Z,999.52
2017-09-08T05:05:51.951Z,999.53
2017-09-08T05:06:49.851Z,999.54
2017-09-08T05:07:50.977Z,999.53
2017-09-08T05:08:49.876Z,999.52
2017-09-08T05:09:49.985Z,999.48
2017-09-08T05:10:49.897Z,999.47
2017-09-08T05:11:51.026Z,999.38
2017-09-08T05:12:49.925Z,999.43
2017-09-08T05:13:52.065Z,999.42
2017-09-08T05:14:49.954Z,999.37
2017-09-08T05:57:30.874Z,999.17
2017-09-08T05:57:55.570Z,999.13
2017-09-08T05:58:56.824Z,999.11
2017-09-08T05:59:55.583Z,999.10
2017-09-08T06:00:55.761Z,999.06
2017-09-08T06:01:55.602Z,999.09
2017-09-08T06:02:55.773Z,999.05
2017-09-08T06:03:55.615Z,999.02
2017-09-08T06:04:55.679Z,999.07
2017-09-08T06:05:55.658Z,999.04
2017-09-08T06:06:55.665Z,999.01
2017-09-08T06:07:55.674Z,999.02
2017-09-08T06:08:55.690Z,998.93
2017-09-08T06:09:55.691Z,998.85
2017-09-08T06:10:55.847Z,998.88
2017-09-08T06:11:55.722Z,998.86
2017-09-08T06:12:55.753Z,998.86
2017-09-08T06:13:55.874Z,998.91
2017-09-08T06:14:55.754Z,998.87
2017-09-08T06:15:55.873Z,998.86
2017-09-08T06:16:55.794Z,998.90
2017-09-08T06:17:55.980Z,998.79
2017-09-08T06:18:55.810Z,998.81
2017-09-08T06:19:56.022Z,998.79
2017-09-08T06:20:55.814Z,998.75
2017-09-08T06:22:08.458Z,998.71
2017-09-08T06:22:55.867Z,998.64
2017-09-08T06:24:00.456Z,998.71
2017-09-08T06:24:55.861Z,998.76
2017-09-08T06:26:00.494Z,998.69
2017-09-08T06:26:55.886Z,998.62
2017-09-08T06:27:55.983Z,998.57
2017-09-08T06:28:55.968Z,998.62
2017-09-08T06:30:13.030Z,998.61
2017-09-08T06:30:55.937Z,998.61
2017-09-08T06:32:03.098Z,998.56
2017-09-08T06:32:55.957Z,998.60
2017-09-08T06:34:20.004Z,998.61
2017-09-08T06:34:55.965Z,998.54
2017-09-08T06:36:08.031Z,998.53
2017-09-08T06:36:56.028Z,998.49
2017-09-08T06:38:00.993Z,998.46
2017-09-08T06:38:56.012Z,998.48
2017-09-08T06:41:41.202Z,998.38
2017-09-08T06:42:40.144Z,998.43
2017-09-08T06:44:33.634Z,998.39
2017-09-08T06:45:33.728Z,998.38
2017-09-08T06:47:29.200Z,998.36
2017-09-08T06:48:26.993Z,998.32
2017-09-08T06:50:20.568Z,998.29
2017-09-08T06:51:20.642Z,998.30
2017-09-08T06:53:19.793Z,998.35
2017-09-08T06:54:18.638Z,998.32
2017-09-08T06:56:13.258Z,998.28
2017-09-08T06:57:14.344Z,998.27
2017-09-08T06:59:38.448Z,998.31
2017-09-08T07:00:38.548Z,998.27
2017-09-08T07:02:32.956Z,998.25
2017-09-08T07:03:32.825Z,998.23
2017-09-08T07:05:26.281Z,998.18
2017-09-08T07:09:08.376Z,998.18
2017-09-08T07:10:08.078Z,998.32
2017-09-08T07:14:20.155Z,998.30
2017-09-08T07:18:32.018Z,998.30
2017-09-08T07:19:33.996Z,998.18
2017-09-08T07:21:55.368Z,998.14
2017-09-08T07:22:55.146Z,998.15
2017-09-08T07:25:24.476Z,998.12
2017-09-08T07:26:29.203Z,998.19
2017-09-08T07:28:42.045Z,998.12
2017-09-08T07:29:41.784Z,998.08
2017-09-08T07:38:01.435Z,998.10
2017-09-08T07:39:00.285Z,998.08
2017-09-08T07:40:59.380Z,998.09
2017-09-08T07:41:59.426Z,998.04
2017-09-08T07:50:42.678Z,998.04
2017-09-08T07:51:41.590Z,998.02
2017-09-08T07:56:51.151Z,997.95
2017-09-08T07:57:33.566Z,997.87
2017-09-08T08:46:10.121Z,997.89
2017-09-08T08:47:10.990Z,997.85
2017-09-08T08:50:45.568Z,997.87
2017-09-08T08:51:45.423Z,997.85
2017-09-08T09:07:44.897Z,997.73
2017-09-08T09:08:43.104Z,997.70
2017-09-08T09:09:43.267Z,997.77
2017-09-08T09:10:43.110Z,997.68
2017-09-08T09:11:43.293Z,997.60
2017-09-08T09:12:43.160Z,997.69
2017-09-08T09:13:43.323Z,997.68
2017-09-08T09:14:43.133Z,997.64
2017-09-08T09:26:24.417Z,997.74
2017-09-08T09:27:24.215Z,997.72
2017-09-08T09:29:17.568Z,997.70
2017-09-08T09:30:17.550Z,997.69
2017-09-08T09:32:12.165Z,997.66
2017-09-08T09:33:12.151Z,997.74
2017-09-08T09:35:05.541Z,997.55
2017-09-08T09:36:06.631Z,997.62
2017-09-08T09:40:15.042Z,997.57
2017-09-08T09:40:37.362Z,997.61
2017-09-08T09:44:09.387Z,997.47
2017-09-08T09:45:09.208Z,997.45
2017-09-08T09:47:08.248Z,997.47
2017-09-08T09:48:02.711Z,997.46
2017-09-08T09:49:57.284Z,997.40
2017-09-08T09:50:57.365Z,997.46
2017-09-08T09:52:50.816Z,997.40
2017-09-08T09:53:50.654Z,997.40
2017-09-08T09:57:02.656Z,997.31
2017-09-08T09:58:02.551Z,997.29
2017-09-08T10:01:24.472Z,997.35
2017-09-08T10:02:24.333Z,997.29
2017-09-08T10:04:27.634Z,997.30
2017-09-08T10:05:27.515Z,997.30
2017-09-08T10:07:22.102Z,997.27
2017-09-08T10:08:22.186Z,997.32
2017-09-08T10:10:27.325Z,997.39
2017-09-08T10:11:27.461Z,997.30
2017-09-08T10:13:21.893Z,997.27
2017-09-08T10:14:20.714Z,997.29
2017-09-08T10:15:20.819Z,997.26
2017-09-08T10:16:20.749Z,997.22
2017-09-08T10:17:20.844Z,997.16
2017-09-08T10:18:20.769Z,997.16
2017-09-08T10:19:20.881Z,997.15
2017-09-08T10:20:20.782Z,997.27
2017-09-08T10:21:21.887Z,997.11
2017-09-08T10:22:20.819Z,997.18
2017-09-08T10:23:21.909Z,997.20
2017-09-08T10:24:20.868Z,997.13
2017-09-08T10:25:20.992Z,997.05
2017-09-08T10:26:20.848Z,997.09
2017-09-08T10:27:21.021Z,997.10
2017-09-08T10:28:20.881Z,997.07
2017-09-08T10:29:21.019Z,997.12
2017-09-08T10:30:20.892Z,997.12
2017-09-08T10:31:21.041Z,997.12
2017-09-08T10:32:20.924Z,997.13
2017-09-08T10:33:21.042Z,997.09
2017-09-08T10:34:20.940Z,997.12
2017-09-08T10:35:21.094Z,997.17
2017-09-08T10:36:20.960Z,997.16
2017-09-08T10:37:21.078Z,997.10
2017-09-08T10:38:20.972Z,997.09
2017-09-08T10:39:21.085Z,997.01
2017-09-08T10:40:20.998Z,997.06
2017-09-08T10:41:21.208Z,996.99
2017-09-08T10:42:21.021Z,996.99
2017-09-08T10:43:23.150Z,996.98
2017-09-08T10:44:21.047Z,997.05
2017-09-08T10:45:35.868Z,997.10
2017-09-08T10:46:21.065Z,997.08
2017-09-08T10:47:27.994Z,997.06
2017-09-08T10:48:21.089Z,997.05
2017-09-08T10:49:31.988Z,997.02
2017-09-08T10:50:21.115Z,997.01
2017-09-08T10:51:21.265Z,997.03
2017-09-08T10:52:21.134Z,997.07
2017-09-08T11:17:56.209Z,996.99
2017-09-08T11:18:39.528Z,997.00
2017-09-08T11:19:39.366Z,997.00
2017-09-08T11:20:39.398Z,997.02
2017-09-08T11:21:39.472Z,996.95
2017-09-08T11:22:39.433Z,997.01
2017-09-08T11:23:50.240Z,997.01
2017-09-08T11:24:39.405Z,996.99
2017-09-08T11:25:40.534Z,997.02
2017-09-08T11:26:39.429Z,996.98
2017-09-08T11:27:41.562Z,997.03
2017-09-08T11:28:39.444Z,997.00
2017-09-08T11:29:50.278Z,997.04
2017-09-08T11:30:39.466Z,997.02
2017-09-08T11:31:39.652Z,997.03
2017-09-08T11:32:39.483Z,997.04
2017-09-08T11:33:41.603Z,997.05
2017-09-08T11:34:39.527Z,997.08
2017-09-08T11:35:39.697Z,997.01
2017-09-08T11:36:39.530Z,997.04
2017-09-08T11:37:44.191Z,997.10
2017-09-08T11:38:39.560Z,997.05
2017-09-08T11:39:39.696Z,997.00
2017-09-08T11:40:39.694Z,997.04
2017-09-08T11:41:39.732Z,997.03
2017-09-08T11:42:39.605Z,997.02
2017-09-08T11:43:39.729Z,997.07
2017-09-08T11:44:39.626Z,997.06
2017-09-08T11:45:40.693Z,997.06
2017-09-08T11:46:39.631Z,997.05
2017-09-08T11:47:40.780Z,997.07
2017-09-08T11:48:39.656Z,997.06
2017-09-08T11:49:39.787Z,997.08
2017-09-08T11:50:39.676Z,997.17
2017-09-08T11:51:45.756Z,997.09
2017-09-08T11:52:39.697Z,997.08
2017-09-08T11:53:39.938Z,997.10
2017-09-08T11:54:39.712Z,997.12
2017-09-08T11:55:45.779Z,997.11
2017-09-08T11:56:39.744Z,997.04
2017-09-08T11:57:39.854Z,997.04
2017-09-08T11:58:39.771Z,997.00
2017-09-08T11:59:40.896Z,997.07
2017-09-08T12:00:39.791Z,996.99
2017-09-08T12:01:41.009Z,997.04
2017-09-08T12:02:39.808Z,997.06
2017-09-08T12:03:40.289Z,997.04
2017-09-08T12:04:39.826Z,997.05
2017-09-08T12:05:40.942Z,997.06
2017-09-08T12:06:39.860Z,997.01
2017-09-08T12:07:42.078Z,997.08
2017-09-08T12:08:39.868Z,997.02
2017-09-08T12:09:41.998Z,997.00
2017-09-08T12:10:39.896Z,997.01
2017-09-08T12:11:40.010Z,996.95
2017-09-08T12:12:39.930Z,996.93
2017-09-08T12:14:03.763Z,996.95
2017-09-08T12:14:40.026Z,996.92
2017-09-08T12:15:40.026Z,996.87
2017-09-08T12:16:39.969Z,996.88
2017-09-08T12:17:42.085Z,996.87
2017-09-08T12:18:40.103Z,996.88
2017-09-08T12:19:50.901Z,996.93
2017-09-08T12:20:40.015Z,996.94
2017-09-08T12:38:56.840Z,996.88
2017-09-08T12:39:55.400Z,996.91
2017-09-08T12:40:54.336Z,996.88
2017-09-08T12:41:55.419Z,996.81
2017-09-08T12:42:54.365Z,996.82
2017-09-08T12:43:54.386Z,996.76
2017-09-08T12:44:54.468Z,996.80
2017-09-08T12:45:54.478Z,996.78
2017-09-08T12:46:54.508Z,996.77
2017-09-08T12:47:54.510Z,996.78
2017-09-08T12:48:54.512Z,996.74
2017-09-08T12:49:54.627Z,996.77
2017-09-08T12:50:54.529Z,996.77
2017-09-08T12:51:54.649Z,996.71
2017-09-08T12:52:54.249Z,996.75
2017-09-08T12:53:54.374Z,996.70
2017-09-08T12:54:54.266Z,996.71
2017-09-08T12:55:54.387Z,996.76
2017-09-08T12:56:54.295Z,996.69
2017-09-08T12:57:54.449Z,996.69
2017-09-08T12:58:54.315Z,996.77
2017-09-08T12:59:54.430Z,996.73
2017-09-08T13:00:54.347Z,996.71
2017-09-08T13:01:56.471Z,996.75
2017-09-08T13:02:54.358Z,996.72
2017-09-08T13:03:54.458Z,996.70
2017-09-08T13:04:54.372Z,996.69
2017-09-08T13:05:54.459Z,996.69
2017-09-08T13:06:54.397Z,996.73
2017-09-08T13:07:54.403Z,996.75
2017-09-08T13:08:54.487Z,996.71
2017-09-08T13:09:54.428Z,996.68
2017-09-08T13:11:06.375Z,996.59
2017-09-08T13:11:54.488Z,996.68
2017-09-08T13:12:59.492Z,996.61
2017-09-08T13:13:54.476Z,996.63
2017-09-08T13:14:55.553Z,996.65
2017-09-08T13:15:54.488Z,996.64
2017-09-08T13:17:01.395Z,996.58
2017-09-08T13:17:54.530Z,996.60
2017-09-08T13:18:54.646Z,996.69
2017-09-08T13:19:54.595Z,996.59
2017-09-08T13:20:54.690Z,996.55
2017-09-08T13:21:54.572Z,996.53
2017-09-08T13:22:54.788Z,996.53
2017-09-08T13:23:54.589Z,996.52
2017-09-08T13:24:54.683Z,996.56
2017-09-08T13:25:54.633Z,996.59
2017-09-08T13:26:54.748Z,996.60
2017-09-08T13:27:54.638Z,996.59
2017-09-08T13:28:54.802Z,996.51
2017-09-08T13:29:54.679Z,996.59
2017-09-08T13:30:54.759Z,996.55
2017-09-08T13:31:54.675Z,996.57
2017-09-08T13:32:55.773Z,996.56
2017-09-08T13:33:54.694Z,996.50
2017-09-08T13:34:55.770Z,996.55
2017-09-08T13:35:54.711Z,996.47
2017-09-08T13:36:55.775Z,996.50
2017-09-08T13:37:54.743Z,996.68
2017-09-08T13:38:54.764Z,996.53
2017-09-08T13:39:54.772Z,996.53
2017-09-08T13:40:54.890Z,996.48
2017-09-08T13:41:54.801Z,996.50
2017-09-08T13:42:54.915Z,996.57
2017-09-08T13:43:54.802Z,996.54
2017-09-08T13:44:54.910Z,996.42
2017-09-08T13:45:54.821Z,996.42
2017-09-08T13:46:54.920Z,996.49
2017-09-08T13:47:54.846Z,996.50
2017-09-08T13:48:54.936Z,996.42
2017-09-08T13:49:54.879Z,996.41
2017-09-08T13:50:54.950Z,996.39
2017-09-08T13:51:54.892Z,996.37
2017-09-08T13:52:54.962Z,996.34
2017-09-08T13:53:54.911Z,996.43
2017-09-08T13:54:54.993Z,996.41
2017-09-08T13:55:54.933Z,996.32
2017-09-08T13:56:54.986Z,996.35
2017-09-08T13:57:54.956Z,996.29
2017-09-08T13:58:55.025Z,996.29
2017-09-08T13:59:54.987Z,996.31
2017-09-08T14:00:55.035Z,996.23
2017-09-08T14:01:55.012Z,996.25
2017-09-08T14:02:55.038Z,996.23
2017-09-08T14:03:55.017Z,996.25
2017-09-08T14:04:55.051Z,996.32
2017-09-08T14:05:55.040Z,996.26
2017-09-08T14:06:55.155Z,996.21
2017-09-08T14:07:55.076Z,996.19
2017-09-08T14:08:55.187Z,996.15
2017-09-08T14:09:55.071Z,996.17
2017-09-08T14:10:56.114Z,996.15
2017-09-08T14:11:55.109Z,996.17
2017-09-08T14:12:55.209Z,996.14
2017-09-08T14:13:55.121Z,996.10
2017-09-08T14:14:55.221Z,996.11
2017-09-08T14:15:55.135Z,996.06
2017-09-08T14:16:55.224Z,996.14
2017-09-08T14:17:55.166Z,996.12
2017-09-08T14:18:55.248Z,996.13
2017-09-08T14:19:55.195Z,996.04
2017-09-08T14:20:55.247Z,996.06
2017-09-08T14:21:55.224Z,996.02
2017-09-08T14:22:55.285Z,996.01
2017-09-08T14:23:55.244Z,995.97
2017-09-08T14:24:55.268Z,995.97
2017-09-08T14:25:55.278Z,995.99
2017-09-08T14:26:55.358Z,995.97
2017-09-08T14:27:55.294Z,995.95
2017-09-08T14:28:55.286Z,995.92
2017-09-08T14:29:56.355Z,995.88
2017-09-08T14:30:55.327Z,995.90
2017-09-08T14:31:55.336Z,995.89
2017-09-08T14:32:55.315Z,995.93
2017-09-08T14:33:55.457Z,995.87
2017-09-08T14:34:55.349Z,995.84
2017-09-08T14:35:55.463Z,995.88
2017-09-08T14:36:55.352Z,995.92
2017-09-08T14:37:55.469Z,995.86
2017-09-08T14:38:55.409Z,995.84
2017-09-08T14:39:55.489Z,995.82
2017-09-08T14:40:55.419Z,995.88
2017-09-08T14:41:55.502Z,995.80
2017-09-08T14:42:55.453Z,995.81
2017-09-08T14:43:55.525Z,995.79
2017-09-08T14:44:55.471Z,995.75
2017-09-08T14:45:55.531Z,995.82
2017-09-08T14:46:55.483Z,995.80
2017-09-08T14:47:55.477Z,995.81
2017-09-08T14:48:55.589Z,995.78
2017-09-08T14:49:55.505Z,995.85
2017-09-08T14:50:55.581Z,995.77
2017-09-08T14:51:55.519Z,995.79
2017-09-08T14:52:55.544Z,995.75
2017-09-08T14:53:55.590Z,995.74
2017-09-08T14:54:55.579Z,995.68
2017-09-08T14:55:55.560Z,995.68
2017-09-08T14:56:55.583Z,995.66
2017-09-08T14:57:55.620Z,995.72
2017-09-08T14:58:55.622Z,995.62
2017-09-08T14:59:55.600Z,995.62
2017-09-08T15:00:55.618Z,995.60
2017-09-08T15:01:56.701Z,995.57
2017-09-08T15:02:55.653Z,995.64
2017-09-08T15:03:55.760Z,995.58
2017-09-08T15:04:55.699Z,995.62
2017-09-08T15:05:56.553Z,995.59
2017-09-08T15:06:55.700Z,995.56
2017-09-08T15:07:56.822Z,995.62
2017-09-08T15:08:55.722Z,995.60
2017-09-08T15:09:57.786Z,995.53
2017-09-08T15:10:55.723Z,995.58
2017-09-08T15:12:16.831Z,995.53
2017-09-08T15:12:55.759Z,995.53
2017-09-08T15:14:07.414Z,995.62
2017-09-08T15:14:55.781Z,995.52
2017-09-08T15:15:56.878Z,995.47
2017-09-08T15:16:55.801Z,995.50
2017-09-08T15:18:07.426Z,995.50
2017-09-08T15:18:55.827Z,995.52
2017-09-08T15:20:19.419Z,995.60
2017-09-08T15:20:55.845Z,995.56
2017-09-08T15:22:00.504Z,995.58
2017-09-08T15:22:55.886Z,995.53
2017-09-08T15:24:07.535Z,995.58
2017-09-08T15:24:55.946Z,995.51
2017-09-08T15:25:56.943Z,995.54
2017-09-08T15:26:55.903Z,995.48
2017-09-08T15:28:03.026Z,995.53
2017-09-08T15:28:55.926Z,995.51
2017-09-08T15:29:56.981Z,995.48
2017-09-08T15:30:55.961Z,995.50
2017-09-08T15:32:23.966Z,995.52
2017-09-08T15:32:55.976Z,995.47
2017-09-08T15:34:18.142Z,995.44
2017-09-08T15:34:55.988Z,995.50
2017-09-08T15:35:58.151Z,995.49
2017-09-08T15:36:56.006Z,995.51
2017-09-08T15:37:57.050Z,995.51
2017-09-08T15:38:56.025Z,995.56
2017-09-08T15:40:02.000Z,995.57
2017-09-08T15:40:56.094Z,995.53
2017-09-08T15:42:02.924Z,995.48
2017-09-08T15:42:56.071Z,995.50
2017-09-08T15:44:18.234Z,995.47
2017-09-08T15:44:56.083Z,995.43
2017-09-08T15:45:58.213Z,995.44
2017-09-08T15:46:56.127Z,995.42
2017-09-08T15:47:56.168Z,995.45
2017-09-08T15:48:56.166Z,995.46
2017-09-08T15:50:17.240Z,995.42
2017-09-08T15:50:56.186Z,995.45
2017-09-08T15:52:12.011Z,995.47
2017-09-08T15:52:56.199Z,995.37
2017-09-08T15:54:11.932Z,995.41
2017-09-08T15:54:56.217Z,995.39
2017-09-08T15:55:58.353Z,995.41
2017-09-08T15:56:56.233Z,995.35
2017-09-08T15:58:02.981Z,995.36
2017-09-08T15:58:56.248Z,995.38
2017-09-08T15:59:56.261Z,995.36
2017-09-08T16:01:02.982Z,995.29
2017-09-08T16:01:56.290Z,995.35
2017-09-08T16:20:58.040Z,995.24
2017-09-08T16:21:55.804Z,995.17
2017-09-08T16:33:30.369Z,995.08
2017-09-08T16:33:58.379Z,995.09
2017-09-08T16:34:58.429Z,995.00
2017-09-08T16:35:58.359Z,994.98
2017-09-08T16:36:58.303Z,994.93
2017-09-08T16:37:58.579Z,994.97